Wednesday, April 25, 2018, 5:03 AM EDT
Back to Local

K12N, Aeroflex-andover Airport

Location: Newton, NJ, United States Lat: 41.017
Local Time: 5:03 AM EDT ( 9:03 GMT) Lon: -74.733
Time Zone: US/Eastern Elev: 583 ft

Show me the last for .
Show Decoded

2018-04-25 03:54 METAR K12N 250754Z AUTO 03004KT 10/09 A3000 RMK AO1 SLP159 P0001 T01000094 =
2018-04-25 02:54 METAR K12N 250654Z AUTO 02003KT 10/09 A3002 RMK AO1 SLP166 P0001 T01000094 =
2018-04-25 01:54 METAR K12N 250554Z AUTO 00000KT 11/09 A3007 RMK AO1 SLP180 P0001 60005 T01060094
                 10128 20100 58030 =
2018-04-25 00:54 METAR K12N 250454Z AUTO 00000KT 10/09 A3011 RMK AO1 SLP194 P0002 T01000089
                 401830017 =
2018-04-24 23:54 METAR K12N 250354Z AUTO 00000KT 10/08 A3013 RMK AO1 SLP204 P0002 T01000083 =
2018-04-24 22:54 METAR K12N 250254Z AUTO VRB03KT 12/07 A3016 RMK AO1 SLP212 T01170067 58015 =
2018-04-24 21:54 METAR K12N 250154Z AUTO 00000KT 12/05 A3019 RMK AO1 SLP221 T01220050 =
2018-04-24 20:54 METAR K12N 250054Z AUTO 12/06 A3021 RMK AO1 SLP229 T01220056 =
2018-04-24 19:54 METAR K12N 242354Z AUTO VRB05KT 13/06 A3020 RMK AO1 SLP230 T01280056 10183 20128
                 55005 =
2018-04-24 18:54 METAR K12N 242254Z AUTO 15008KT 100V190 14/05 A3020 RMK AO1 SLP232 T01390050 =
2018-04-24 17:54 METAR K12N 242154Z AUTO VRB06KT 15/05 A3021 RMK AO1 SLP234 T01500050 =
2018-04-24 16:54 METAR K12N 242054Z AUTO 00000KT 16/04 A3022 RMK AO1 SLP237 T01560044 56019 =
2018-04-24 15:54 METAR K12N 241954Z AUTO 18007G19KT 130V220 17/03 A3023 RMK AO1 SLP238 T01720033
                 =
2018-04-24 14:54 METAR K12N 241854Z AUTO 15008KT 130V190 18/03 A3025 RMK AO1 SLP245 T01780033 =
2018-04-24 13:54 METAR K12N 241754Z AUTO VRB06G17KT 17/02 A3028 RMK AO1 SLP254 T01720022 10183
                 20067 58026 =
2018-04-24 12:54 METAR K12N 241654Z AUTO 18007G16KT 140V220 18/03 A3030 RMK AO1 SLP262 T01780028
                 =
2018-04-24 11:54 METAR K12N 241554Z AUTO 20008KT 150V240 17/03 A3033 RMK AO1 SLP271 T01670028 =
2018-04-24 10:54 METAR K12N 241454Z AUTO 20009G15KT 140V240 16/03 A3036 RMK AO1 SLP279 T01610033
                 58011 =
2018-04-24 09:54 METAR K12N 241354Z AUTO 16009KT 130V210 14/M03 A3037 RMK AO1 SLP286 T01441033 =
2018-04-24 08:54 METAR K12N 241254Z AUTO 19005KT 12/M02 A3038 RMK AO1 SLP288 T01221022 =
2018-04-24 07:54 METAR K12N 241154Z AUTO 00000KT 07/03 A3039 RMK AO1 SLP293 T00670028 10067 20017
                 51003 =
2018-04-24 06:54 METAR K12N 241054Z AUTO 00000KT 02/01 A3038 RMK AO1 SLP292 T00220006 =
2018-04-24 05:54 METAR K12N 240954Z AUTO 00000KT 02/00 A3039 RMK AO1 SLP294 T00220000 =

Support USWX by starting your Amazon purchase here.